Terminal Aerodrome Forecast
Issued by NWS

Current Version | Previous Version | Text Only | Print | Product List | Glossary On
Versions: 1 2 3 4 5 6 7 8 9 10 11 12 13 14
000
FTUS45 KFGZ 242300
TAFPRC
TAF
KPRC 242320Z 2500/2524 22007KT P6SM BKN120
     FM250300 VRB06KT P6SM SCT120 SCT200
     FM251900 21008KT P6SM BKN100 PROB30 2519/2524 -TSRA BKN090CB=

USA.gov is the U.S. government's official web portal to all federal, state and local government web resources and services.